AST,Max TemperatureF,Mean TemperatureF,Min TemperatureF,Max Dew PointF,MeanDew PointF,Min DewpointF,Max Humidity, Mean Humidity, Min Humidity, Max Sea Level PressureIn, Mean Sea Level PressureIn, Min Sea Level PressureIn, Max VisibilityMiles, Mean VisibilityMiles, Min VisibilityMiles, Max Wind SpeedMPH, Mean Wind SpeedMPH, Max Gust SpeedMPH,PrecipitationIn, CloudCover, Events, WindDirDegrees
2012-11-1,60,56,52,59,54,52,100,97,91,29.84,29.67,29.56,,,,6,2,,0.31,,,60
2012-11-2,64,56,48,58,52,47,100,89,59,29.56,29.52,29.47,,,,8,3,,0.51,,,201
2012-11-3,53,50,47,51,50,47,99,96,90,29.55,29.45,29.34,,,,4,2,,1.06,,,301
2012-11-4,53,50,45,50,46,42,98,84,59,29.64,29.45,29.30,,,,10,4,20,0.12,,,271
2012-11-5,50,45,40,44,43,40,98,91,71,29.91,29.80,29.65,,,,9,3,,0.16,,,269
2012-11-6,41,36,30,40,31,22,98,78,47,30.17,29.94,29.76,,,,10,4,20,0.28,,,257
2012-11-7,43,36,28,37,28,22,81,70,50,30.28,30.22,30.09,,,,18,6,25,0.16,,,323
2012-11-8,48,44,41,48,45,39,99,97,90,30.10,29.91,29.60,,,,21,14,28,0.83,,,54
2012-11-9,52,46,39,51,45,36,100,93,80,29.56,29.49,29.41,,,,10,3,21,0.08,,,273
2012-11-10,42,38,35,36,28,22,78,64,49,30.14,29.81,29.58,,,,13,8,34,0.03,,,285
2012-11-11,42,39,35,30,27,24,76,60,43,30.54,30.34,30.16,,,,8,5,23,0.00,,,294
2012-11-12,59,46,34,46,39,30,93,73,50,30.53,30.45,30.32,,,,14,4,23,0.02,,,234
2012-11-13,68,62,57,56,51,44,78,66,50,30.32,30.26,30.19,,,,15,11,29,0.08,,,234
2012-11-14,48,44,39,56,41,38,97,92,77,30.45,30.39,30.21,,,,5,3,,0.35,,,359
2012-11-15,44,42,40,44,42,39,99,94,85,30.41,30.32,30.18,,,,7,6,,0.03,,,30
2012-11-16,45,42,38,44,39,32,99,89,76,30.20,30.14,30.10,,,,6,3,,0.03,,,345
2012-11-17,43,37,31,36,30,25,86,74,50,30.51,30.35,30.19,,,,7,3,,0.00,,,326
2012-11-18,38,33,28,27,25,23,89,72,43,30.65,30.60,30.51,,,,6,3,,0.00,,,294
2012-11-19,45,36,27,32,27,24,85,70,40,30.63,30.43,30.19,,,,7,3,,0.02,,,239
2012-11-20,50,40,31,39,33,28,99,73,50,30.22,30.15,30.11,,,,10,6,18,0.02,,,322
2012-11-21,40,34,29,36,30,25,90,77,61,30.35,30.30,30.23,,,,15,6,,0.03,,,151
2012-11-22,49,38,28,34,29,25,89,74,40,30.28,30.21,30.10,,,,7,4,21,0.00,,,216
2012-11-23,56,44,33,39,34,31,90,66,39,30.09,29.98,29.85,,,,12,8,20,0.00,,,223
2012-11-24,48,42,37,47,44,36,99,96,91,29.83,29.53,29.11,,,,4,2,,0.12,,,321
2012-11-25,45,39,33,45,32,23,99,78,53,29.38,29.17,29.06,,,,15,6,28,0.03,,,239
2012-11-26,34,32,29,28,23,19,94,68,44,29.88,29.61,29.40,,,,13,8,33,0.04,,,236
2012-11-27,36,32,28,28,23,20,92,71,51,30.34,30.17,29.91,,,,5,3,,0.01,,,250
2012-11-28,34,28,23,26,22,19,84,72,52,30.34,30.19,29.98,,,,7,3,,0.00,,,307
2012-11-29,36,32,27,26,23,18,89,70,55,29.96,29.84,29.77,,,,8,3,22,0.08,,,299
2012-11-30,26,22,19,22,17,10,91,74,54,30.24,30.00,29.86,,,,9,5,22,0.08,,,272